sensor_id;sensor_type;location;lat;lon;timestamp;pressure;altitude;pressure_sealevel;temperature;humidity
74437;BME280;62868;52.360;30.424;2022-12-15T00:04:40;1027.3;;;-4.4;65.1
74437;BME280;62868;52.360;30.424;2022-12-15T00:09:40;1027.3;;;-4.4;65.1
74437;BME280;62868;52.360;30.424;2022-12-15T00:14:50;1027.3;;;-4.4;65.1
74437;BME280;62868;52.360;30.424;2022-12-15T00:19:38;1027.2;;;-4.4;65
74437;BME280;62868;52.360;30.424;2022-12-15T00:25:04;1027.1;;;-4.4;65
74437;BME280;62868;52.360;30.424;2022-12-15T00:29:54;1027.1;;;-4.3;65
74437;BME280;62868;52.360;30.424;2022-12-15T00:34:52;1027;;;-4.3;64.9
74437;BME280;62868;52.360;30.424;2022-12-15T00:39:26;1026.9;;;-4.3;64.8
74437;BME280;62868;52.360;30.424;2022-12-15T00:44:50;1026.9;;;-4.2;64.8
74437;BME280;62868;52.360;30.424;2022-12-15T00:50:04;1026.8;;;-4.1;64.7
74437;BME280;62868;52.360;30.424;2022-12-15T00:54:40;1026.7;;;-4.1;64.6
74437;BME280;62868;52.360;30.424;2022-12-15T00:59:20;1026.5;;;-4;64.5
74437;BME280;62868;52.360;30.424;2022-12-15T01:04:52;1026.4;;;-3.9;64.4
74437;BME280;62868;52.360;30.424;2022-12-15T01:09:28;1026.3;;;-3.9;64.4
74437;BME280;62868;52.360;30.424;2022-12-15T01:15:04;1026.2;;;-3.9;64.3
74437;BME280;62868;52.360;30.424;2022-12-15T01:19:58;1026.1;;;-3.8;64.2
74437;BME280;62868;52.360;30.424;2022-12-15T01:24:54;1026;;;-3.8;64.1
74437;BME280;62868;52.360;30.424;2022-12-15T01:29:42;1025.9;;;-3.7;64.1
74437;BME280;62868;52.360;30.424;2022-12-15T01:35:04;1025.9;;;-3.7;64
74437;BME280;62868;52.360;30.424;2022-12-15T01:40:07;1025.8;;;-3.6;63.9
74437;BME280;62868;52.360;30.424;2022-12-15T01:44:32;1025.6;;;-3.6;63.8
74437;BME280;62868;52.360;30.424;2022-12-15T01:49:32;1025.6;;;-3.5;63.8
74437;BME280;62868;52.360;30.424;2022-12-15T01:54:54;1025.6;;;-3.4;63.7
74437;BME280;62868;52.360;30.424;2022-12-15T01:59:21;1025.5;;;-3.3;63.7
74437;BME280;62868;52.360;30.424;2022-12-15T02:05:08;1025.5;;;-3.3;63.7
74437;BME280;62868;52.360;30.424;2022-12-15T02:09:42;1025.5;;;-3.2;63.7
74437;BME280;62868;52.360;30.424;2022-12-15T02:14:44;1025.5;;;-3.2;63.6
74437;BME280;62868;52.360;30.424;2022-12-15T02:19:31;1025.5;;;-3.1;63.6
74437;BME280;62868;52.360;30.424;2022-12-15T02:25:09;1025.4;;;-3;63.6
74437;BME280;62868;52.360;30.424;2022-12-15T02:30:10;1025.3;;;-2.9;63.5
74437;BME280;62868;52.360;30.424;2022-12-15T02:34:21;1025.2;;;-2.8;63.5
74437;BME280;62868;52.360;30.424;2022-12-15T02:39:42;1025.1;;;-2.6;63.5
74437;BME280;62868;52.360;30.424;2022-12-15T02:45:07;1025.1;;;-2.5;63.4
74437;BME280;62868;52.360;30.424;2022-12-15T02:49:21;1025;;;-2.3;63.4
74437;BME280;62868;52.360;30.424;2022-12-15T02:55:02;1025;;;-2.2;63.4
74437;BME280;62868;52.360;30.424;2022-12-15T02:59:56;1024.9;;;-2.1;63.3
74437;BME280;62868;52.360;30.424;2022-12-15T03:04:42;1024.8;;;-2.1;63.2
74437;BME280;62868;52.360;30.424;2022-12-15T03:09:42;1024.7;;;-2;63.1
74437;BME280;62868;52.360;30.424;2022-12-15T03:15:06;1024.6;;;-2.1;63.2
74437;BME280;62868;52.360;30.424;2022-12-15T03:20:06;1024.6;;;-2.1;63.3
74437;BME280;62868;52.360;30.424;2022-12-15T03:24:30;1024.4;;;-2.2;63.5
74437;BME280;62868;52.360;30.424;2022-12-15T03:29:20;1024.3;;;-2.3;63.8
74437;BME280;62868;52.360;30.424;2022-12-15T03:35:06;1024.2;;;-2.3;63.9
74437;BME280;62868;52.360;30.424;2022-12-15T03:39:32;1024.1;;;-2.3;64
74437;BME280;62868;52.360;30.424;2022-12-15T03:44:56;1023.9;;;-2.3;64.2
74437;BME280;62868;52.360;30.424;2022-12-15T03:49:46;1023.8;;;-2.3;64.4
74437;BME280;62868;52.360;30.424;2022-12-15T03:54:42;1023.6;;;-2.2;64.5
74437;BME280;62868;52.360;30.424;2022-12-15T03:59:20;1023.6;;;-2.3;64.6
74437;BME280;62868;52.360;30.424;2022-12-15T04:05:06;1023.5;;;-2.2;64.8
74437;BME280;62868;52.360;30.424;2022-12-15T04:10:02;1023.4;;;-2.2;64.9
74437;BME280;62868;52.360;30.424;2022-12-15T04:14:30;1023.3;;;-2.2;65.1
74437;BME280;62868;52.360;30.424;2022-12-15T04:19:42;1023.3;;;-2.2;65.3
74437;BME280;62868;52.360;30.424;2022-12-15T04:25:07;1023.3;;;-2.2;65.5
74437;BME280;62868;52.360;30.424;2022-12-15T04:29:32;1023.3;;;-2.1;65.6
74437;BME280;62868;52.360;30.424;2022-12-15T04:34:44;1023.3;;;-2.1;65.7
74437;BME280;62868;52.360;30.424;2022-12-15T04:39:54;1023.3;;;-2;65.8
74437;BME280;62868;52.360;30.424;2022-12-15T04:44:20;1023.2;;;-2;66.1
74437;BME280;62868;52.360;30.424;2022-12-15T04:49:20;1022.9;;;-2;66.4
74437;BME280;62868;52.360;30.424;2022-12-15T04:55:08;1022.9;;;-1.9;66.5
74437;BME280;62868;52.360;30.424;2022-12-15T05:00:04;1022.9;;;-1.9;66.6
74437;BME280;62868;52.360;30.424;2022-12-15T05:04:40;1022.8;;;-1.9;66.7
74437;BME280;62868;52.360;30.424;2022-12-15T05:09:42;1022.6;;;-1.9;66.9
74437;BME280;62868;52.360;30.424;2022-12-15T05:15:04;1022.6;;;-1.9;67
74437;BME280;62868;52.360;30.424;2022-12-15T05:19:20;1022.5;;;-1.9;67.3
74437;BME280;62868;52.360;30.424;2022-12-15T05:24:54;1022.3;;;-1.9;67.4
74437;BME280;62868;52.360;30.424;2022-12-15T05:29:54;1022.2;;;-1.9;67.6
74437;BME280;62868;52.360;30.424;2022-12-15T05:34:40;1022.1;;;-1.9;67.8
74437;BME280;62868;52.360;30.424;2022-12-15T05:39:30;1021.9;;;-1.9;68
74437;BME280;62868;52.360;30.424;2022-12-15T05:44:54;1021.8;;;-1.9;68.1
74437;BME280;62868;52.360;30.424;2022-12-15T05:50:06;1021.5;;;-1.9;68.3
74437;BME280;62868;52.360;30.424;2022-12-15T05:54:32;1021.4;;;-1.9;68.5
74437;BME280;62868;52.360;30.424;2022-12-15T05:59:40;1021.4;;;-1.9;68.6
74437;BME280;62868;52.360;30.424;2022-12-15T06:05:02;1021.4;;;-1.9;68.8
74437;BME280;62868;52.360;30.424;2022-12-15T06:09:32;1021.3;;;-1.9;68.9
74437;BME280;62868;52.360;30.424;2022-12-15T06:15:08;1021.3;;;-1.9;69
74437;BME280;62868;52.360;30.424;2022-12-15T06:20:04;1021.5;;;-1.9;69
74437;BME280;62868;52.360;30.424;2022-12-15T06:24:40;1021.4;;;-1.9;69.2
74437;BME280;62868;52.360;30.424;2022-12-15T06:29:20;1021.4;;;-1.8;69.2
74437;BME280;62868;52.360;30.424;2022-12-15T06:34:52;1021.3;;;-1.8;69.2
74437;BME280;62868;52.360;30.424;2022-12-15T06:40:04;1021.3;;;-1.8;69.3
74437;BME280;62868;52.360;30.424;2022-12-15T06:44:32;1021.2;;;-1.8;69.5
74437;BME280;62868;52.360;30.424;2022-12-15T06:49:20;1021.1;;;-1.8;69.6
74437;BME280;62868;52.360;30.424;2022-12-15T06:54:54;1021;;;-1.8;69.7
74437;BME280;62868;52.360;30.424;2022-12-15T07:00:06;1020.9;;;-1.7;69.6
74437;BME280;62868;52.360;30.424;2022-12-15T07:05:06;1020.9;;;-1.7;69.7
74437;BME280;62868;52.360;30.424;2022-12-15T07:10:00;1020.7;;;-1.8;69.9
74437;BME280;62868;52.360;30.424;2022-12-15T07:14:30;1020.7;;;-1.7;69.9
74437;BME280;62868;52.360;30.424;2022-12-15T07:19:30;1020.7;;;-1.6;69.8
74437;BME280;62868;52.360;30.424;2022-12-15T07:25:05;1020.8;;;-1.6;69.8
74437;BME280;62868;52.360;30.424;2022-12-15T07:29:56;1021;;;-1.6;69.7
74437;BME280;62868;52.360;30.424;2022-12-15T07:34:20;1021;;;-1.5;69.7
74437;BME280;62868;52.360;30.424;2022-12-15T07:39:54;1021.1;;;-1.5;69.7
74437;BME280;62868;52.360;30.424;2022-12-15T07:44:56;1021;;;-1.5;69.8
74437;BME280;62868;52.360;30.424;2022-12-15T07:49:58;1021.2;;;-1.5;69.7
74437;BME280;62868;52.360;30.424;2022-12-15T07:55:08;1021.4;;;-1.5;69.7
74437;BME280;62868;52.360;30.424;2022-12-15T08:00:07;1021.3;;;-1.5;69.7
74437;BME280;62868;52.360;30.424;2022-12-15T08:04:44;1021.4;;;-1.4;69.8
74437;BME280;62868;52.360;30.424;2022-12-15T08:09:40;1021.3;;;-1.4;69.8
74437;BME280;62868;52.360;30.424;2022-12-15T08:15:07;1021.3;;;-1.4;69.8
74437;BME280;62868;52.360;30.424;2022-12-15T08:20:06;1021.3;;;-1.4;69.8
74437;BME280;62868;52.360;30.424;2022-12-15T08:24:34;1021.3;;;-1.4;69.8
74437;BME280;62868;52.360;30.424;2022-12-15T08:29:44;1021.3;;;-1.4;69.8
74437;BME280;62868;52.360;30.424;2022-12-15T08:34:44;1021.2;;;-1.4;69.8
74437;BME280;62868;52.360;30.424;2022-12-15T08:39:54;1021.2;;;-1.4;69.8
74437;BME280;62868;52.360;30.424;2022-12-15T08:45:06;1021;;;-1.4;69.8
74437;BME280;62868;52.360;30.424;2022-12-15T08:50:08;1021;;;-1.3;69.8
74437;BME280;62868;52.360;30.424;2022-12-15T08:54:42;1020.9;;;-1.3;69.8
74437;BME280;62868;52.360;30.424;2022-12-15T08:59:30;1020.9;;;-1.3;69.7
74437;BME280;62868;52.360;30.424;2022-12-15T09:05:06;1020.9;;;-1.3;69.7
74437;BME280;62868;52.360;30.424;2022-12-15T09:09:56;1020.9;;;-1.3;69.6
74437;BME280;62868;52.360;30.424;2022-12-15T09:14:44;1020.8;;;-1.2;69.5
74437;BME280;62868;52.360;30.424;2022-12-15T09:19:28;1020.8;;;-1.2;69.5
74437;BME280;62868;52.360;30.424;2022-12-15T09:24:58;1020.7;;;-1.1;69.3
74437;BME280;62868;52.360;30.424;2022-12-15T09:29:56;1020.6;;;-1;69.2
74437;BME280;62868;52.360;30.424;2022-12-15T09:35:08;1020.6;;;-1;69.1
74437;BME280;62868;52.360;30.424;2022-12-15T09:44:42;1020.5;;;-1.8;67.5
74437;BME280;62868;52.360;30.424;2022-12-15T09:49:24;1020.4;;;-1.7;68.2
74437;BME280;62868;52.360;30.424;2022-12-15T09:55:07;1020.4;;;-1.4;69
74437;BME280;62868;52.360;30.424;2022-12-15T09:59:57;1020.3;;;-1.1;69.2
74437;BME280;62868;52.360;30.424;2022-12-15T10:04:22;1020.3;;;-1;69.3
74437;BME280;62868;52.360;30.424;2022-12-15T10:09:42;1020.2;;;-0.9;69.4
74437;BME280;62868;52.360;30.424;2022-12-15T10:15:02;1020.1;;;-0.8;69.4
74437;BME280;62868;52.360;30.424;2022-12-15T10:19:58;1020.1;;;-0.6;69.2
74437;BME280;62868;52.360;30.424;2022-12-15T10:25:13;1020.1;;;-0.5;69
74437;BME280;62868;52.360;30.424;2022-12-15T10:30:07;1020;;;-0.5;68.9
74437;BME280;62868;52.360;30.424;2022-12-15T10:34:42;1020;;;-0.4;68.9
74437;BME280;62868;52.360;30.424;2022-12-15T10:39:20;1019.9;;;-0.3;68.8
74437;BME280;62868;52.360;30.424;2022-12-15T10:45:08;1020;;;-0.1;68.6
74437;BME280;62868;52.360;30.424;2022-12-15T10:50:14;1020;;;0;68.5
74437;BME280;62868;52.360;30.424;2022-12-15T10:54:31;1020;;;0;68.5
74437;BME280;62868;52.360;30.424;2022-12-15T10:59:40;1020;;;0.1;68.5
74437;BME280;62868;52.360;30.424;2022-12-15T11:04:54;1019.9;;;0.1;68.5
74437;BME280;62868;52.360;30.424;2022-12-15T11:09:58;1019.8;;;0;68.6
74437;BME280;62868;52.360;30.424;2022-12-15T11:15:35;1019.9;;;0;68.6
74437;BME280;62868;52.360;30.424;2022-12-15T11:19:24;1019.8;;;-0.1;68.8
74437;BME280;62868;52.360;30.424;2022-12-15T11:24:43;1019.8;;;-0.1;68.8
74437;BME280;62868;52.360;30.424;2022-12-15T11:30:03;1019.8;;;-0.1;68.9
74437;BME280;62868;52.360;30.424;2022-12-15T11:35:05;1019.8;;;-0.1;68.9
74437;BME280;62868;52.360;30.424;2022-12-15T11:39:23;1019.8;;;0;68.9
74437;BME280;62868;52.360;30.424;2022-12-15T11:44:33;1019.8;;;0.1;68.8
74437;BME280;62868;52.360;30.424;2022-12-15T11:50:11;1019.8;;;0.2;68.8
74437;BME280;62868;52.360;30.424;2022-12-15T11:54:58;1019.8;;;0.2;68.9
74437;BME280;62868;52.360;30.424;2022-12-15T12:00:04;1019.8;;;0.2;68.9
74437;BME280;62868;52.360;30.424;2022-12-15T12:04:21;1019.9;;;0.2;68.9
74437;BME280;62868;52.360;30.424;2022-12-15T12:09:23;1019.9;;;0.3;69
74437;BME280;62868;52.360;30.424;2022-12-15T12:14:47;1020;;;0.3;69.1
74437;BME280;62868;52.360;30.424;2022-12-15T12:19:22;1020;;;0.4;69
74437;BME280;62868;52.360;30.424;2022-12-15T12:25:08;1019.9;;;0.4;69
74437;BME280;62868;52.360;30.424;2022-12-15T12:29:57;1019.8;;;0.5;69.1
74437;BME280;62868;52.360;30.424;2022-12-15T12:34:34;1019.7;;;0.5;69.2
74437;BME280;62868;52.360;30.424;2022-12-15T12:39:55;1019.8;;;0.5;69.2
74437;BME280;62868;52.360;30.424;2022-12-15T12:44:54;1019.8;;;0.6;69.2
74437;BME280;62868;52.360;30.424;2022-12-15T12:50:11;1019.8;;;0.7;69.2
74437;BME280;62868;52.360;30.424;2022-12-15T12:54:40;1019.8;;;0.7;69.2
74437;BME280;62868;52.360;30.424;2022-12-15T12:59:46;1019.9;;;0.7;69.3
74437;BME280;62868;52.360;30.424;2022-12-15T13:04:36;1019.9;;;0.7;69.4
74437;BME280;62868;52.360;30.424;2022-12-15T13:24:25;1019.9;;;0.7;69.5
74437;BME280;62868;52.360;30.424;2022-12-15T13:29:55;1019.9;;;-0.6;68.8
74437;BME280;62868;52.360;30.424;2022-12-15T13:35:00;1019.9;;;-0.2;70.2
74437;BME280;62868;52.360;30.424;2022-12-15T13:40:15;1019.9;;;0.1;70.5
74437;BME280;62868;52.360;30.424;2022-12-15T13:44:24;1019.9;;;0.4;70.7
74437;BME280;62868;52.360;30.424;2022-12-15T13:49:50;1019.9;;;0.6;70.8
74437;BME280;62868;52.360;30.424;2022-12-15T13:54:45;1020;;;0.8;70.7
74437;BME280;62868;52.360;30.424;2022-12-15T13:59:34;1019.9;;;0.9;70.7
74437;BME280;62868;52.360;30.424;2022-12-15T14:05:12;1019.9;;;1;70.7
74437;BME280;62868;52.360;30.424;2022-12-15T14:09:33;1019.9;;;1;70.7
74437;BME280;62868;52.360;30.424;2022-12-15T14:14:21;1019.9;;;1.1;70.7
74437;BME280;62868;52.360;30.424;2022-12-15T14:19:54;1019.9;;;1.2;70.7
74437;BME280;62868;52.360;30.424;2022-12-15T14:24:58;1019.9;;;1.3;70.7
74437;BME280;62868;52.360;30.424;2022-12-15T14:30:09;1019.9;;;1.3;70.7
74437;BME280;62868;52.360;30.424;2022-12-15T14:34:23;1020;;;1.4;70.6
74437;BME280;62868;52.360;30.424;2022-12-15T14:39:43;1020.1;;;1.5;70.6
74437;BME280;62868;52.360;30.424;2022-12-15T14:44:43;1020.1;;;1.6;70.6
74437;BME280;62868;52.360;30.424;2022-12-15T14:49:31;1020.2;;;1.6;70.6
74437;BME280;62868;52.360;30.424;2022-12-15T14:55:22;1020.3;;;1.7;70.6
74437;BME280;62868;52.360;30.424;2022-12-15T14:59:45;1020.3;;;1.7;70.6
74437;BME280;62868;52.360;30.424;2022-12-15T15:04:32;1020.3;;;1.8;70.6
74437;BME280;62868;52.360;30.424;2022-12-15T15:09:54;1020.4;;;1.8;70.6
74437;BME280;62868;52.360;30.424;2022-12-15T15:14:58;1020.4;;;1.8;70.6
74437;BME280;62868;52.360;30.424;2022-12-15T15:20:15;1020.5;;;1.9;71
74437;BME280;62868;52.360;30.424;2022-12-15T15:24:32;1020.6;;;1.9;71.5
74437;BME280;62868;52.360;30.424;2022-12-15T15:29:36;1020.7;;;1.9;71.8
74437;BME280;62868;52.360;30.424;2022-12-15T15:34:40;1020.7;;;1.9;72
74437;BME280;62868;52.360;30.424;2022-12-15T15:39:46;1020.7;;;2;72.3
74437;BME280;62868;52.360;30.424;2022-12-15T15:45:09;1020.8;;;2;73.2
74437;BME280;62868;52.360;30.424;2022-12-15T15:49:44;1020.9;;;2.1;74.1
74437;BME280;62868;52.360;30.424;2022-12-15T15:54:40;1021;;;2.1;74.7
74437;BME280;62868;52.360;30.424;2022-12-15T15:59:54;1021.1;;;2.2;75.2
74437;BME280;62868;52.360;30.424;2022-12-15T16:04:56;1021;;;2.2;75.6
74437;BME280;62868;52.360;30.424;2022-12-15T16:10:09;1021.1;;;2.3;75.9
74437;BME280;62868;52.360;30.424;2022-12-15T16:14:40;1021.1;;;2.4;76.2
74437;BME280;62868;52.360;30.424;2022-12-15T16:19:54;1021.2;;;2.4;76.3
74437;BME280;62868;52.360;30.424;2022-12-15T16:24:54;1021.2;;;2.4;76.6
74437;BME280;62868;52.360;30.424;2022-12-15T16:29:32;1021.2;;;2.5;76.7
74437;BME280;62868;52.360;30.424;2022-12-15T16:35:11;1021.4;;;2.6;76.9
74437;BME280;62868;52.360;30.424;2022-12-15T16:39:33;1021.4;;;2.6;76.9
74437;BME280;62868;52.360;30.424;2022-12-15T16:44:30;1021.5;;;2.6;77.1
74437;BME280;62868;52.360;30.424;2022-12-15T16:49:46;1021.5;;;2.6;77.2
74437;BME280;62868;52.360;30.424;2022-12-15T16:54:55;1021.4;;;2.7;77.3
74437;BME280;62868;52.360;30.424;2022-12-15T17:00:13;1021.4;;;2.7;77.5
74437;BME280;62868;52.360;30.424;2022-12-15T17:04:20;1021.4;;;2.7;77.5
74437;BME280;62868;52.360;30.424;2022-12-15T17:09:42;1021.5;;;2.7;77.5
74437;BME280;62868;52.360;30.424;2022-12-15T17:14:32;1021.5;;;2.7;77.6
74437;BME280;62868;52.360;30.424;2022-12-15T17:19:20;1021.5;;;2.7;77.6
74437;BME280;62868;52.360;30.424;2022-12-15T17:25:12;1021.5;;;2.7;77.7
74437;BME280;62868;52.360;30.424;2022-12-15T17:30:00;1021.5;;;2.8;77.8
74437;BME280;62868;52.360;30.424;2022-12-15T17:34:44;1021.7;;;2.8;77.8
74437;BME280;62868;52.360;30.424;2022-12-15T17:39:40;1021.7;;;2.7;77.8
74437;BME280;62868;52.360;30.424;2022-12-15T17:44:58;1022;;;2.7;77.9
74437;BME280;62868;52.360;30.424;2022-12-15T17:50:11;1022.2;;;2.6;77.8
74437;BME280;62868;52.360;30.424;2022-12-15T17:54:20;1022.2;;;2.6;77.8
74437;BME280;62868;52.360;30.424;2022-12-15T17:59:57;1022.2;;;2.6;77.7
74437;BME280;62868;52.360;30.424;2022-12-15T18:04:46;1022.3;;;2.5;77.6
74437;BME280;62868;52.360;30.424;2022-12-15T18:09:25;1022.3;;;2.4;77.5
74437;BME280;62868;52.360;30.424;2022-12-15T18:15:07;1022.4;;;2.4;77.5
74437;BME280;62868;52.360;30.424;2022-12-15T18:19:32;1022.5;;;2.3;77.5
74437;BME280;62868;52.360;30.424;2022-12-15T18:24:44;1022.5;;;2.2;77.5
74437;BME280;62868;52.360;30.424;2022-12-15T18:29:58;1022.6;;;2.2;77.5
74437;BME280;62868;52.360;30.424;2022-12-15T18:34:58;1022.7;;;2.2;77.6
74437;BME280;62868;52.360;30.424;2022-12-15T18:40:11;1022.8;;;2.2;77.5
74437;BME280;62868;52.360;30.424;2022-12-15T18:44:21;1022.9;;;2.1;77.5
74437;BME280;62868;52.360;30.424;2022-12-15T18:49:57;1023;;;2.1;77.6
74437;BME280;62868;52.360;30.424;2022-12-15T18:54:46;1023;;;2.1;77.6
74437;BME280;62868;52.360;30.424;2022-12-15T18:59:46;1023.1;;;2;77.5
74437;BME280;62868;52.360;30.424;2022-12-15T19:05:08;1023.1;;;2;77.5
74437;BME280;62868;52.360;30.424;2022-12-15T19:09:32;1023.2;;;2;77.6
74437;BME280;62868;52.360;30.424;2022-12-15T19:14:45;1023.3;;;1.9;77.7
74437;BME280;62868;52.360;30.424;2022-12-15T19:19:55;1023.4;;;1.9;77.7
74437;BME280;62868;52.360;30.424;2022-12-15T19:24:56;1023.5;;;1.9;77.7
74437;BME280;62868;52.360;30.424;2022-12-15T19:30:12;1023.6;;;1.9;77.7
74437;BME280;62868;52.360;30.424;2022-12-15T19:34:43;1023.6;;;1.9;77.7
74437;BME280;62868;52.360;30.424;2022-12-15T19:39:57;1023.7;;;1.9;77.7
74437;BME280;62868;52.360;30.424;2022-12-15T19:44:58;1023.8;;;1.8;77.7
74437;BME280;62868;52.360;30.424;2022-12-15T19:49:20;1023.9;;;1.8;77.6
74437;BME280;62868;52.360;30.424;2022-12-15T19:54:28;1023.9;;;1.7;77.7
74437;BME280;62868;52.360;30.424;2022-12-15T19:59:30;1024;;;1.7;77.7
74437;BME280;62868;52.360;30.424;2022-12-15T20:05:07;1024.1;;;1.7;77.7
74437;BME280;62868;52.360;30.424;2022-12-15T20:09:30;1024.1;;;1.7;77.8
74437;BME280;62868;52.360;30.424;2022-12-15T20:14:57;1024.2;;;1.7;77.8
74437;BME280;62868;52.360;30.424;2022-12-15T20:19:54;1024.3;;;1.7;77.8
74437;BME280;62868;52.360;30.424;2022-12-15T20:24:20;1024.4;;;1.6;77.8
74437;BME280;62868;52.360;30.424;2022-12-15T20:30:17;1024.6;;;1.6;77.8
74437;BME280;62868;52.360;30.424;2022-12-15T20:35:00;1024.6;;;1.6;77.8
74437;BME280;62868;52.360;30.424;2022-12-15T20:40:04;1024.6;;;1.6;77.9
74437;BME280;62868;52.360;30.424;2022-12-15T20:44:45;1024.7;;;1.5;77.9
74437;BME280;62868;52.360;30.424;2022-12-15T20:49:49;1024.8;;;1.5;77.8
74437;BME280;62868;52.360;30.424;2022-12-15T20:55:12;1025;;;1.5;77.8
74437;BME280;62868;52.360;30.424;2022-12-15T20:59:30;1025;;;1.5;77.8
74437;BME280;62868;52.360;30.424;2022-12-15T21:04:59;1025;;;1.5;77.8
74437;BME280;62868;52.360;30.424;2022-12-15T21:09:57;1025.1;;;1.4;77.7
74437;BME280;62868;52.360;30.424;2022-12-15T21:15:01;1025.2;;;1.4;77.8
74437;BME280;62868;52.360;30.424;2022-12-15T21:20:09;1025.2;;;1.4;77.8
74437;BME280;62868;52.360;30.424;2022-12-15T21:24:59;1025.3;;;1.3;77.7
74437;BME280;62868;52.360;30.424;2022-12-15T21:29:33;1025.4;;;1.3;77.8
74437;BME280;62868;52.360;30.424;2022-12-15T21:34:43;1025.4;;;1.3;77.8
74437;BME280;62868;52.360;30.424;2022-12-15T21:39:32;1025.5;;;1.3;77.8
74437;BME280;62868;52.360;30.424;2022-12-15T21:45:12;1025.5;;;1.2;77.7
74437;BME280;62868;52.360;30.424;2022-12-15T21:49:31;1025.6;;;1.2;77.8
74437;BME280;62868;52.360;30.424;2022-12-15T21:54:57;1025.7;;;1.2;77.8
74437;BME280;62868;52.360;30.424;2022-12-15T21:59:53;1025.8;;;1.1;77.8
74437;BME280;62868;52.360;30.424;2022-12-15T22:04:29;1025.8;;;1.1;77.9
74437;BME280;62868;52.360;30.424;2022-12-15T22:10:01;1025.8;;;1.1;77.9
74437;BME280;62868;52.360;30.424;2022-12-15T22:14:55;1025.8;;;1.1;77.9
74437;BME280;62868;52.360;30.424;2022-12-15T22:19:41;1025.8;;;1.1;77.9
74437;BME280;62868;52.360;30.424;2022-12-15T22:24:41;1025.8;;;1.1;77.9
74437;BME280;62868;52.360;30.424;2022-12-15T22:29:39;1025.9;;;1.1;77.9
74437;BME280;62868;52.360;30.424;2022-12-15T22:35:04;1026;;;1.2;77.9
74437;BME280;62868;52.360;30.424;2022-12-15T22:39:27;1026;;;1.2;77.9
74437;BME280;62868;52.360;30.424;2022-12-15T22:44:53;1026.1;;;1.2;77.9
74437;BME280;62868;52.360;30.424;2022-12-15T22:49:51;1026.2;;;1.2;78
74437;BME280;62868;52.360;30.424;2022-12-15T22:54:31;1026.3;;;1.2;77.9
74437;BME280;62868;52.360;30.424;2022-12-15T23:00:07;1026.3;;;1.2;77.9
74437;BME280;62868;52.360;30.424;2022-12-15T23:05:05;1026.4;;;1.2;77.9
74437;BME280;62868;52.360;30.424;2022-12-15T23:09:29;1026.4;;;1.2;77.8
74437;BME280;62868;52.360;30.424;2022-12-15T23:14:41;1026.5;;;1.1;77.8
74437;BME280;62868;52.360;30.424;2022-12-15T23:19:21;1026.7;;;1.1;77.8
74437;BME280;62868;52.360;30.424;2022-12-15T23:25:07;1026.7;;;1.1;77.9
74437;BME280;62868;52.360;30.424;2022-12-15T23:29:21;1026.7;;;1.2;77.9
74437;BME280;62868;52.360;30.424;2022-12-15T23:34:33;1026.9;;;1.1;77.9
74437;BME280;62868;52.360;30.424;2022-12-15T23:39:43;1027.1;;;1.2;77.8
74437;BME280;62868;52.360;30.424;2022-12-15T23:44:21;1027.1;;;1.1;77.8
74437;BME280;62868;52.360;30.424;2022-12-15T23:50:03;1027.3;;;1;77.7
74437;BME280;62868;52.360;30.424;2022-12-15T23:54:47;1027.3;;;0.9;77.8
74437;BME280;62868;52.360;30.424;2022-12-15T23:59:21;1027.2;;;0.8;77.8
